Time,TemperatureF,DewpointF,PressureIn,WindDirection,WindDirectionDegrees,WindSpeedMPH,WindSpeedGustMPH,Humidity,HourlyPrecipIn,Conditions,Clouds,dailyrainin,SolarRadiationWatts/m^2,SoftwareType,DateUTC
2013-04-07 00:00:00,52.0,48.3,29.98,SE,132,4.0,5.0,87,0.00,,,0.00,0,Wunderground v.1.15,2013-04-07 07:00:00,
2013-04-07 00:07:00,51.9,48.5,29.98,ESE,117,3.0,4.0,88,0.00,,,0.00,0,Wunderground v.1.15,2013-04-07 07:07:00,
2013-04-07 00:13:00,51.9,48.5,29.98,ESE,122,3.0,3.0,88,0.00,,,0.00,0,Wunderground v.1.15,2013-04-07 07:13:00,
2013-04-07 00:18:00,51.9,48.5,29.98,ESE,122,1.0,3.0,88,0.00,,,0.00,0,Wunderground v.1.15,2013-04-07 07:18:00,
2013-04-07 00:24:00,51.7,48.3,29.98,ESE,117,1.0,2.0,88,0.00,,,0.00,0,Wunderground v.1.15,2013-04-07 07:24:00,
2013-04-07 00:29:00,51.5,48.1,29.98,ESE,123,1.0,3.0,88,0.00,,,0.00,0,Wunderground v.1.15,2013-04-07 07:29:00,
2013-04-07 00:35:00,51.2,47.8,29.97,ESE,115,2.0,4.0,88,0.00,,,0.00,0,Wunderground v.1.15,2013-04-07 07:35:00,
2013-04-07 00:40:00,51.2,47.8,29.97,SE,128,2.0,4.0,88,0.00,,,0.00,0,Wunderground v.1.15,2013-04-07 07:40:00,
2013-04-07 00:46:00,51.0,47.6,29.98,SE,130,2.0,4.0,88,0.00,,,0.00,0,Wunderground v.1.15,2013-04-07 07:46:00,
2013-04-07 00:52:00,50.9,47.5,29.97,ESE,114,3.0,3.0,88,0.00,,,0.00,0,Wunderground v.1.15,2013-04-07 07:52:00,
2013-04-07 00:57:00,50.8,47.7,29.97,SE,124,3.0,5.0,89,0.00,,,0.00,0,Wunderground v.1.15,2013-04-07 07:57:00,
2013-04-07 01:03:00,50.7,47.6,29.97,ESE,121,3.0,3.0,89,0.00,,,0.00,0,Wunderground v.1.15,2013-04-07 08:03:00,
2013-04-07 01:08:00,50.5,47.4,29.96,ESE,123,3.0,4.0,89,0.00,,,0.00,0,Wunderground v.1.15,2013-04-07 08:08:00,
2013-04-07 01:14:00,50.5,47.4,29.96,SE,128,4.0,5.0,89,0.00,,,0.00,0,Wunderground v.1.15,2013-04-07 08:14:00,
2013-04-07 01:20:00,50.5,47.7,29.96,SSE,165,4.0,5.0,90,0.00,,,0.00,0,Wunderground v.1.15,2013-04-07 08:20:00,
2013-04-07 01:25:00,50.5,47.7,29.96,ESE,117,4.0,4.0,90,0.00,,,0.00,0,Wunderground v.1.15,2013-04-07 08:25:00,
2013-04-07 01:32:00,50.6,47.8,29.96,ESE,113,3.0,4.0,90,0.00,,,0.00,0,Wunderground v.1.15,2013-04-07 08:32:00,
2013-04-07 01:38:00,50.5,47.7,29.96,SSE,148,3.0,4.0,90,0.00,,,0.00,0,Wunderground v.1.15,2013-04-07 08:38:00,
2013-04-07 01:43:00,50.5,47.7,29.95,SE,141,4.0,4.0,90,0.00,,,0.00,0,Wunderground v.1.15,2013-04-07 08:43:00,
2013-04-07 01:48:00,50.6,47.8,29.96,SE,125,2.0,4.0,90,0.00,,,0.00,0,Wunderground v.1.15,2013-04-07 08:48:00,
2013-04-07 01:54:00,50.5,47.4,29.95,ESE,117,2.0,3.0,89,0.00,,,0.00,0,Wunderground v.1.15,2013-04-07 08:54:00,
2013-04-07 02:00:00,50.3,47.5,29.95,ESE,123,3.0,4.0,90,0.00,,,0.00,0,Wunderground v.1.15,2013-04-07 09:00:00,
2013-04-07 02:05:00,50.2,47.4,29.95,SE,141,3.0,4.0,90,0.00,,,0.00,0,Wunderground v.1.15,2013-04-07 09:05:00,
2013-04-07 02:12:00,50.1,47.3,29.95,ESE,113,2.0,2.0,90,0.00,,,0.00,0,Wunderground v.1.15,2013-04-07 09:12:00,
2013-04-07 02:17:00,50.1,47.3,29.95,ESE,111,2.0,3.0,90,0.00,,,0.00,0,Wunderground v.1.15,2013-04-07 09:17:00,
2013-04-07 02:22:00,49.9,46.8,29.96,SE,124,2.0,4.0,89,0.00,,,0.00,0,Wunderground v.1.15,2013-04-07 09:22:00,
2013-04-07 02:28:00,49.8,47.0,29.96,SE,132,2.0,4.0,90,0.00,,,0.00,0,Wunderground v.1.15,2013-04-07 09:28:00,
2013-04-07 02:34:00,49.7,46.9,29.96,SE,139,2.0,4.0,90,0.00,,,0.00,0,Wunderground v.1.15,2013-04-07 09:34:00,
2013-04-07 02:39:00,49.6,46.8,29.96,ESE,121,2.0,4.0,90,0.00,,,0.00,0,Wunderground v.1.15,2013-04-07 09:39:00,
2013-04-07 02:44:00,49.5,46.7,29.95,SE,128,2.0,3.0,90,0.00,,,0.00,0,Wunderground v.1.15,2013-04-07 09:44:00,
2013-04-07 02:50:00,49.4,46.6,29.95,SE,126,2.0,4.0,90,0.00,,,0.00,0,Wunderground v.1.15,2013-04-07 09:50:00,
2013-04-07 02:56:00,49.2,46.4,29.95,ESE,119,2.0,3.0,90,0.00,,,0.00,0,Wunderground v.1.15,2013-04-07 09:56:00,
2013-04-07 03:02:00,49.0,46.2,29.95,SE,124,3.0,3.0,90,0.00,,,0.00,0,Wunderground v.1.15,2013-04-07 10:02:00,
2013-04-07 03:08:00,48.8,46.0,29.94,ESE,113,3.0,5.0,90,0.00,,,0.00,0,Wunderground v.1.15,2013-04-07 10:08:00,
2013-04-07 03:13:00,48.8,46.0,29.94,ESE,118,3.0,4.0,90,0.00,,,0.00,0,Wunderground v.1.15,2013-04-07 10:13:00,
2013-04-07 03:18:00,48.7,45.9,29.94,ESE,120,3.0,4.0,90,0.00,,,0.00,0,Wunderground v.1.15,2013-04-07 10:18:00,
2013-04-07 03:24:00,48.8,46.3,29.94,ESE,105,3.0,4.0,91,0.00,,,0.00,0,Wunderground v.1.15,2013-04-07 10:24:00,
2013-04-07 03:30:00,48.8,46.3,29.94,ESE,106,3.0,5.0,91,0.00,,,0.00,0,Wunderground v.1.15,2013-04-07 10:30:00,
2013-04-07 03:36:00,49.0,46.5,29.94,ESE,123,3.0,4.0,91,0.00,,,0.00,0,Wunderground v.1.15,2013-04-07 10:36:00,
2013-04-07 03:42:00,49.1,46.6,29.93,ESE,111,3.0,3.0,91,0.00,,,0.00,0,Wunderground v.1.15,2013-04-07 10:42:00,
2013-04-07 03:48:00,49.5,47.0,29.93,ENE,66,2.0,3.0,91,0.00,,,0.00,0,Wunderground v.1.15,2013-04-07 10:48:00,
2013-04-07 03:53:00,49.6,47.1,29.93,ESE,115,1.0,2.0,91,0.00,,,0.00,0,Wunderground v.1.15,2013-04-07 10:53:00,
2013-04-07 03:59:00,49.8,47.3,29.93,East,86,1.0,2.0,91,0.00,,,0.00,0,Wunderground v.1.15,2013-04-07 10:59:00,
2013-04-07 04:05:00,50.0,47.5,29.93,ESE,121,1.0,3.0,91,0.00,,,0.00,0,Wunderground v.1.15,2013-04-07 11:05:00,
2013-04-07 04:10:00,50.1,47.6,29.93,SE,129,2.0,3.0,91,0.00,,,0.00,0,Wunderground v.1.15,2013-04-07 11:10:00,
2013-04-07 04:16:00,50.2,47.4,29.93,ESE,119,2.0,5.0,90,0.00,,,0.00,0,Wunderground v.1.15,2013-04-07 11:16:00,
2013-04-07 04:22:00,50.4,47.9,29.93,ESE,116,2.0,2.0,91,0.00,,,0.00,0,Wunderground v.1.15,2013-04-07 11:22:00,
2013-04-07 04:28:00,50.5,47.7,29.93,SE,132,2.0,3.0,90,0.00,,,0.00,0,Wunderground v.1.15,2013-04-07 11:28:00,
2013-04-07 04:34:00,50.4,47.6,29.93,SE,125,2.0,4.0,90,0.00,,,0.00,0,Wunderground v.1.15,2013-04-07 11:34:00,
2013-04-07 04:39:00,50.5,47.7,29.93,ESE,120,2.0,4.0,90,0.00,,,0.00,0,Wunderground v.1.15,2013-04-07 11:39:00,
2013-04-07 04:45:00,50.4,47.6,29.93,SE,128,2.0,3.0,90,0.00,,,0.00,0,Wunderground v.1.15,2013-04-07 11:45:00,
2013-04-07 04:50:00,50.4,47.6,29.92,ESE,105,2.0,3.0,90,0.00,,,0.00,0,Wunderground v.1.15,2013-04-07 11:50:00,
2013-04-07 04:55:00,50.3,47.5,29.92,SE,129,1.0,4.0,90,0.00,,,0.00,0,Wunderground v.1.15,2013-04-07 11:55:00,
2013-04-07 05:00:00,50.3,47.5,29.92,SE,125,2.0,4.0,90,0.00,,,0.00,0,Wunderground v.1.15,2013-04-07 12:00:00,
2013-04-07 05:06:00,50.1,47.3,29.92,ESE,111,2.0,3.0,90,0.00,,,0.00,0,Wunderground v.1.15,2013-04-07 12:06:00,
2013-04-07 05:12:00,50.1,47.3,29.92,ESE,117,2.0,2.0,90,0.00,,,0.00,0,Wunderground v.1.15,2013-04-07 12:12:00,
2013-04-07 05:17:00,49.9,47.1,29.92,SE,139,2.0,2.0,90,0.00,,,0.00,0,Wunderground v.1.15,2013-04-07 12:17:00,
2013-04-07 05:23:00,49.7,46.9,29.92,SE,126,2.0,2.0,90,0.00,,,0.00,0,Wunderground v.1.15,2013-04-07 12:23:00,
2013-04-07 05:28:00,49.6,47.1,29.92,SE,130,3.0,3.0,91,0.00,,,0.00,0,Wunderground v.1.15,2013-04-07 12:28:00,
2013-04-07 05:33:00,49.6,46.8,29.92,SE,130,2.0,2.0,90,0.00,,,0.00,0,Wunderground v.1.15,2013-04-07 12:33:00,
2013-04-07 05:39:00,49.6,47.1,29.92,ESE,123,1.0,3.0,91,0.00,,,0.00,0,Wunderground v.1.15,2013-04-07 12:39:00,
2013-04-07 05:45:00,49.5,47.0,29.92,ESE,116,1.0,3.0,91,0.00,,,0.00,0,Wunderground v.1.15,2013-04-07 12:45:00,
2013-04-07 05:50:00,49.5,47.0,29.92,SE,126,2.0,3.0,91,0.00,,,0.00,0,Wunderground v.1.15,2013-04-07 12:50:00,
2013-04-07 05:57:00,49.2,46.7,29.92,SE,132,3.0,6.0,91,0.00,,,0.00,0,Wunderground v.1.15,2013-04-07 12:57:00,
2013-04-07 06:03:00,49.2,46.7,29.93,ESE,116,5.0,6.0,91,0.00,,,0.00,0,Wunderground v.1.15,2013-04-07 13:03:00,
2013-04-07 06:08:00,49.0,46.5,29.93,SE,134,4.0,6.0,91,0.00,,,0.00,0,Wunderground v.1.15,2013-04-07 13:08:00,
2013-04-07 06:13:00,48.9,46.4,29.93,SE,130,2.0,2.0,91,0.00,,,0.00,0,Wunderground v.1.15,2013-04-07 13:13:00,
2013-04-07 06:19:00,48.8,46.3,29.93,SE,141,2.0,3.0,91,0.00,,,0.00,0,Wunderground v.1.15,2013-04-07 13:19:00,
2013-04-07 06:25:00,48.8,46.6,29.94,SE,140,3.0,5.0,92,0.00,,,0.00,0,Wunderground v.1.15,2013-04-07 13:25:00,
2013-04-07 06:30:00,48.8,46.3,29.94,SE,143,3.0,5.0,91,0.00,,,0.00,0,Wunderground v.1.15,2013-04-07 13:30:00,
2013-04-07 06:35:00,48.8,46.6,29.94,ESE,121,2.0,3.0,92,0.00,,,0.00,5,Wunderground v.1.15,2013-04-07 13:35:00,
2013-04-07 06:40:00,48.8,46.6,29.94,ESE,117,2.0,3.0,92,0.00,,,0.00,11,Wunderground v.1.15,2013-04-07 13:40:00,
2013-04-07 06:46:00,49.0,46.8,29.94,SE,130,1.0,3.0,92,0.00,,,0.00,12,Wunderground v.1.15,2013-04-07 13:46:00,
2013-04-07 06:51:00,49.0,46.8,29.94,SE,125,3.0,3.0,92,0.00,,,0.00,23,Wunderground v.1.15,2013-04-07 13:51:00,
2013-04-07 06:57:00,49.3,47.1,29.95,ESE,121,4.0,5.0,92,0.00,,,0.00,26,Wunderground v.1.15,2013-04-07 13:57:00,
2013-04-07 07:03:00,49.4,47.2,29.95,SE,132,3.0,3.0,92,0.00,,,0.00,26,Wunderground v.1.15,2013-04-07 14:03:00,
2013-04-07 07:08:00,49.6,47.4,29.95,SE,125,1.0,3.0,92,0.00,,,0.00,25,Wunderground v.1.15,2013-04-07 14:08:00,
2013-04-07 07:14:00,50.0,47.8,29.95,SE,126,1.0,3.0,92,0.00,,,0.00,32,Wunderground v.1.15,2013-04-07 14:14:00,
2013-04-07 07:20:00,50.4,48.2,29.96,ESE,123,2.0,3.0,92,0.00,,,0.00,30,Wunderground v.1.15,2013-04-07 14:20:00,
2013-04-07 07:25:00,50.7,48.7,29.95,SE,145,2.0,3.0,93,0.00,,,0.00,46,Wunderground v.1.15,2013-04-07 14:25:00,
2013-04-07 07:31:00,51.2,49.2,29.96,SE,128,2.0,2.0,93,0.00,,,0.00,49,Wunderground v.1.15,2013-04-07 14:31:00,
2013-04-07 07:37:00,51.8,49.8,29.96,SE,142,1.0,3.0,93,0.00,,,0.00,62,Wunderground v.1.15,2013-04-07 14:37:00,
2013-04-07 07:43:00,52.2,49.9,29.96,SSE,148,1.0,1.0,92,0.00,,,0.00,62,Wunderground v.1.15,2013-04-07 14:43:00,
2013-04-07 07:48:00,52.6,50.3,29.96,SE,130,1.0,2.0,92,0.00,,,0.00,67,Wunderground v.1.15,2013-04-07 14:48:00,
2013-04-07 07:53:00,53.0,50.7,29.97,SSE,148,2.0,3.0,92,0.00,,,0.00,86,Wunderground v.1.15,2013-04-07 14:53:00,
2013-04-07 07:58:00,53.5,51.2,29.96,SE,145,2.0,3.0,92,0.00,,,0.00,98,Wunderground v.1.15,2013-04-07 14:58:00,
2013-04-07 08:04:00,54.0,51.7,29.96,SE,145,1.0,2.0,92,0.00,,,0.00,105,Wunderground v.1.15,2013-04-07 15:04:00,
2013-04-07 08:10:00,54.7,52.1,29.97,East,86,0.0,2.0,91,0.00,,,0.00,90,Wunderground v.1.15,2013-04-07 15:10:00,
2013-04-07 08:16:00,55.3,52.4,29.97,SSE,149,0.0,2.0,90,0.00,,,0.00,104,Wunderground v.1.15,2013-04-07 15:16:00,
2013-04-07 08:22:00,55.8,52.6,29.96,SSE,147,1.0,1.0,89,0.00,,,0.00,100,Wunderground v.1.15,2013-04-07 15:22:00,
2013-04-07 08:28:00,56.2,52.7,29.96,East,100,0.0,2.0,88,0.00,,,0.00,86,Wunderground v.1.15,2013-04-07 15:28:00,
2013-04-07 08:34:00,56.4,52.6,29.97,ESE,122,1.0,4.0,87,0.00,,,0.00,100,Wunderground v.1.15,2013-04-07 15:34:00,
2013-04-07 08:40:00,56.6,52.5,29.97,ESE,107,1.0,4.0,86,0.00,,,0.00,141,Wunderground v.1.15,2013-04-07 15:40:00,
2013-04-07 08:46:00,56.9,52.8,29.97,SE,142,1.0,1.0,86,0.00,,,0.00,121,Wunderground v.1.15,2013-04-07 15:46:00,
2013-04-07 08:51:00,57.2,52.7,29.97,SE,142,0.0,0.0,85,0.00,,,0.00,116,Wunderground v.1.15,2013-04-07 15:51:00,
2013-04-07 08:57:00,57.4,52.6,29.96,SE,124,0.0,2.0,84,0.00,,,0.00,137,Wunderground v.1.15,2013-04-07 15:57:00,
2013-04-07 09:03:00,57.6,52.8,29.97,WSW,249,1.0,3.0,84,0.00,,,0.00,144,Wunderground v.1.15,2013-04-07 16:03:00,
2013-04-07 09:08:00,57.8,53.0,29.97,WSW,247,1.0,3.0,84,0.00,,,0.00,114,Wunderground v.1.15,2013-04-07 16:08:00,
2013-04-07 09:13:00,57.7,52.6,29.97,WSW,249,1.0,1.0,83,0.00,,,0.00,127,Wunderground v.1.15,2013-04-07 16:13:00,
2013-04-07 09:19:00,57.8,52.7,29.97,SSW,198,1.0,3.0,83,0.00,,,0.00,120,Wunderground v.1.15,2013-04-07 16:19:00,
2013-04-07 09:24:00,57.8,52.3,29.97,West,266,1.0,2.0,82,0.00,,,0.00,144,Wunderground v.1.15,2013-04-07 16:24:00,
2013-04-07 09:30:00,58.1,53.0,29.97,West,273,1.0,2.0,83,0.00,,,0.00,195,Wunderground v.1.15,2013-04-07 16:30:00,
2013-04-07 09:35:00,58.4,52.6,29.97,WSW,246,0.0,2.0,81,0.00,,,0.00,134,Wunderground v.1.15,2013-04-07 16:35:00,
2013-04-07 09:40:00,58.5,52.7,29.97,West,274,1.0,3.0,81,0.00,,,0.00,111,Wunderground v.1.15,2013-04-07 16:40:00,
2013-04-07 09:45:00,58.2,52.4,29.97,West,277,2.0,3.0,81,0.00,,,0.00,111,Wunderground v.1.15,2013-04-07 16:45:00,
2013-04-07 09:51:00,58.1,52.3,29.97,West,281,2.0,2.0,81,0.00,,,0.00,118,Wunderground v.1.15,2013-04-07 16:51:00,
2013-04-07 09:57:00,58.2,52.4,29.97,WSW,242,1.0,3.0,81,0.00,,,0.00,130,Wunderground v.1.15,2013-04-07 16:57:00,
2013-04-07 10:02:00,58.4,52.6,29.97,West,272,2.0,2.0,81,0.00,,,0.00,144,Wunderground v.1.15,2013-04-07 17:02:00,
2013-04-07 10:08:00,58.2,52.4,29.97,West,272,1.0,2.0,81,0.00,,,0.00,162,Wunderground v.1.15,2013-04-07 17:08:00,
2013-04-07 10:13:00,58.2,52.4,29.97,West,273,0.0,1.0,81,0.00,,,0.00,195,Wunderground v.1.15,2013-04-07 17:13:00,
2013-04-07 10:19:00,58.4,52.3,29.97,NNW,327,1.0,3.0,80,0.00,,,0.00,239,Wunderground v.1.15,2013-04-07 17:19:00,
2013-04-07 10:25:00,58.6,52.4,29.97,NNW,348,1.0,1.0,80,0.00,,,0.00,239,Wunderground v.1.15,2013-04-07 17:25:00,
2013-04-07 10:31:00,59.2,52.7,29.97,NW,322,0.0,0.0,79,0.00,,,0.00,269,Wunderground v.1.15,2013-04-07 17:31:00,
2013-04-07 10:36:00,59.4,52.9,29.97,NW,321,1.0,2.0,79,0.00,,,0.00,330,Wunderground v.1.15,2013-04-07 17:36:00,
2013-04-07 10:42:00,60.1,53.2,29.97,WNW,286,2.0,4.0,78,0.00,,,0.00,278,Wunderground v.1.15,2013-04-07 17:42:00,
2013-04-07 10:47:00,59.5,52.6,29.97,South,187,2.0,4.0,78,0.00,,,0.00,241,Wunderground v.1.15,2013-04-07 17:47:00,
2013-04-07 10:52:00,59.5,53.0,29.97,NNW,331,1.0,2.0,79,0.00,,,0.00,327,Wunderground v.1.15,2013-04-07 17:52:00,
2013-04-07 10:58:00,60.0,53.1,29.97,SW,221,2.0,5.0,78,0.00,,,0.00,309,Wunderground v.1.15,2013-04-07 17:58:00,
2013-04-07 11:03:00,60.8,53.9,29.97,SW,219,2.0,4.0,78,0.00,,,0.00,264,Wunderground v.1.15,2013-04-07 18:03:00,
2013-04-07 11:09:00,60.8,53.2,29.97,West,266,2.0,4.0,76,0.00,,,0.00,246,Wunderground v.1.15,2013-04-07 18:09:00,
2013-04-07 11:14:00,60.8,53.2,29.97,South,179,2.0,3.0,76,0.00,,,0.00,244,Wunderground v.1.15,2013-04-07 18:14:00,
2013-04-07 11:20:00,60.7,53.1,29.97,NW,325,2.0,5.0,76,0.00,,,0.00,283,Wunderground v.1.15,2013-04-07 18:20:00,
2013-04-07 11:25:00,60.2,52.6,29.97,West,275,3.0,4.0,76,0.00,,,0.00,397,Wunderground v.1.15,2013-04-07 18:25:00,
2013-04-07 11:31:00,60.6,53.3,29.97,West,261,3.0,3.0,77,0.00,,,0.00,482,Wunderground v.1.15,2013-04-07 18:31:00,
2013-04-07 11:36:00,61.5,53.1,29.97,North,9,3.0,3.0,74,0.00,,,0.00,468,Wunderground v.1.15,2013-04-07 18:36:00,
2013-04-07 11:42:00,61.9,53.5,29.96,NE,53,2.0,2.0,74,0.00,,,0.00,935,Wunderground v.1.15,2013-04-07 18:42:00,
2013-04-07 11:47:00,62.2,53.8,29.96,South,174,1.0,4.0,74,0.00,,,0.00,652,Wunderground v.1.15,2013-04-07 18:47:00,
2013-04-07 11:53:00,64.0,54.4,29.96,SSW,207,3.0,5.0,71,0.00,,,0.00,926,Wunderground v.1.15,2013-04-07 18:53:00,
2013-04-07 11:59:00,64.3,53.9,29.95,NW,319,4.0,5.0,69,0.00,,,0.00,738,Wunderground v.1.15,2013-04-07 18:59:00,
2013-04-07 12:05:00,63.6,54.0,29.95,NW,322,4.0,6.0,71,0.00,,,0.00,860,Wunderground v.1.15,2013-04-07 19:05:00,
2013-04-07 12:11:00,63.7,53.3,29.94,WSW,252,4.0,5.0,69,0.00,,,0.00,874,Wunderground v.1.15,2013-04-07 19:11:00,
2013-04-07 12:17:00,65.6,54.3,29.94,SSW,213,4.0,5.0,67,0.00,,,0.00,926,Wunderground v.1.15,2013-04-07 19:17:00,
2013-04-07 12:23:00,66.3,53.8,29.94,NNW,338,4.0,6.0,64,0.00,,,0.00,868,Wunderground v.1.15,2013-04-07 19:23:00,
2013-04-07 12:29:00,66.1,54.8,29.94,WSW,237,3.0,6.0,67,0.00,,,0.00,863,Wunderground v.1.15,2013-04-07 19:29:00,
2013-04-07 12:35:00,66.6,53.6,29.93,NW,317,3.0,5.0,63,0.00,,,0.00,708,Wunderground v.1.15,2013-04-07 19:35:00,
2013-04-07 12:40:00,67.2,54.2,29.93,South,178,4.0,6.0,63,0.00,,,0.00,835,Wunderground v.1.15,2013-04-07 19:40:00,
2013-04-07 12:46:00,67.8,54.3,29.93,WSW,253,5.0,8.0,62,0.00,,,0.00,849,Wunderground v.1.15,2013-04-07 19:46:00,
2013-04-07 12:51:00,66.9,53.5,29.93,ESE,119,4.0,4.0,62,0.00,,,0.00,796,Wunderground v.1.15,2013-04-07 19:51:00,
2013-04-07 12:58:00,68.6,54.2,29.92,WSW,247,2.0,7.0,60,0.00,,,0.00,854,Wunderground v.1.15,2013-04-07 19:58:00,
2013-04-07 13:04:00,68.6,54.2,29.92,SW,221,3.0,3.0,60,0.00,,,0.00,863,Wunderground v.1.15,2013-04-07 20:04:00,
2013-04-07 13:09:00,69.3,53.9,29.92,NNW,336,4.0,7.0,58,0.00,,,0.00,826,Wunderground v.1.15,2013-04-07 20:09:00,
2013-04-07 13:14:00,69.1,54.6,29.91,SSW,201,4.0,6.0,60,0.00,,,0.00,951,Wunderground v.1.15,2013-04-07 20:14:00,
2013-04-07 13:20:00,69.9,54.4,29.91,West,261,4.0,8.0,58,0.00,,,0.00,997,Wunderground v.1.15,2013-04-07 20:20:00,
2013-04-07 13:26:00,69.5,53.6,29.91,SSE,155,3.0,4.0,57,0.00,,,0.00,882,Wunderground v.1.15,2013-04-07 20:26:00,
2013-04-07 13:32:00,69.9,54.0,29.90,NW,320,3.0,3.0,57,0.00,,,0.00,786,Wunderground v.1.15,2013-04-07 20:32:00,
2013-04-07 13:37:00,70.2,53.8,29.90,SSE,168,3.0,6.0,56,0.00,,,0.00,828,Wunderground v.1.15,2013-04-07 20:37:00,
2013-04-07 13:42:00,70.3,53.4,29.90,NW,307,3.0,4.0,55,0.00,,,0.00,865,Wunderground v.1.15,2013-04-07 20:42:00,
2013-04-07 13:48:00,70.2,53.8,29.89,NW,309,4.0,7.0,56,0.00,,,0.00,452,Wunderground v.1.15,2013-04-07 20:48:00,
2013-04-07 13:53:00,70.8,53.8,29.89,SW,224,4.0,5.0,55,0.00,,,0.00,455,Wunderground v.1.15,2013-04-07 20:53:00,
2013-04-07 13:58:00,71.2,53.7,29.89,WSW,257,4.0,8.0,54,0.00,,,0.00,870,Wunderground v.1.15,2013-04-07 20:58:00,
2013-04-07 14:04:00,70.3,52.9,29.89,NW,311,4.0,5.0,54,0.00,,,0.00,842,Wunderground v.1.15,2013-04-07 21:04:00,
2013-04-07 14:10:00,70.1,53.2,29.88,WSW,249,3.0,5.0,55,0.00,,,0.00,362,Wunderground v.1.15,2013-04-07 21:10:00,
2013-04-07 14:15:00,70.8,53.8,29.88,SW,222,3.0,5.0,55,0.00,,,0.00,642,Wunderground v.1.15,2013-04-07 21:15:00,
2013-04-07 14:21:00,71.3,53.8,29.88,WNW,291,4.0,4.0,54,0.00,,,0.00,863,Wunderground v.1.15,2013-04-07 21:21:00,
2013-04-07 14:27:00,72.1,53.5,29.87,SW,227,4.0,9.0,52,0.00,,,0.00,816,Wunderground v.1.15,2013-04-07 21:27:00,
2013-04-07 14:33:00,72.6,53.4,29.86,WSW,237,5.0,5.0,51,0.00,,,0.00,793,Wunderground v.1.15,2013-04-07 21:33:00,
2013-04-07 14:39:00,73.3,54.6,29.87,SW,218,5.0,11.0,52,0.00,,,0.00,779,Wunderground v.1.15,2013-04-07 21:39:00,
2013-04-07 14:45:00,72.0,54.4,29.87,SW,220,5.0,6.0,54,0.00,,,0.00,765,Wunderground v.1.15,2013-04-07 21:45:00,
2013-04-07 14:51:00,72.4,55.3,29.88,SSW,200,6.0,7.0,55,0.00,,,0.00,738,Wunderground v.1.15,2013-04-07 21:51:00,
2013-04-07 14:57:00,71.9,54.9,29.88,WSW,238,7.0,14.0,55,0.00,,,0.00,721,Wunderground v.1.15,2013-04-07 21:57:00,
2013-04-07 15:02:00,72.4,55.3,29.88,WNW,284,7.0,9.0,55,0.00,,,0.00,708,Wunderground v.1.15,2013-04-07 22:02:00,
2013-04-07 15:07:00,72.3,55.2,29.88,WSW,240,6.0,12.0,55,0.00,,,0.00,694,Wunderground v.1.15,2013-04-07 22:07:00,
2013-04-07 15:13:00,71.8,55.3,29.88,SW,225,7.0,9.0,56,0.00,,,0.00,677,Wunderground v.1.15,2013-04-07 22:13:00,
2013-04-07 15:19:00,71.3,55.3,29.88,WSW,254,7.0,12.0,57,0.00,,,0.00,661,Wunderground v.1.15,2013-04-07 22:19:00,
2013-04-07 15:25:00,71.2,54.7,29.87,SSW,211,5.0,7.0,56,0.00,,,0.00,647,Wunderground v.1.15,2013-04-07 22:25:00,
2013-04-07 15:31:00,71.4,55.9,29.87,WSW,245,5.0,5.0,58,0.00,,,0.00,626,Wunderground v.1.15,2013-04-07 22:31:00,
2013-04-07 15:37:00,71.5,55.0,29.87,WSW,243,6.0,9.0,56,0.00,,,0.00,617,Wunderground v.1.15,2013-04-07 22:37:00,
2013-04-07 15:43:00,70.8,54.8,29.87,SSW,197,7.0,9.0,57,0.00,,,0.00,596,Wunderground v.1.15,2013-04-07 22:43:00,
2013-04-07 15:49:00,70.8,54.8,29.87,South,174,6.0,9.0,57,0.00,,,0.00,584,Wunderground v.1.15,2013-04-07 22:49:00,
2013-04-07 15:54:00,70.6,55.1,29.86,SSW,208,6.0,8.0,58,0.00,,,0.00,568,Wunderground v.1.15,2013-04-07 22:54:00,
2013-04-07 15:59:00,71.0,55.0,29.86,SW,235,6.0,9.0,57,0.00,,,0.00,547,Wunderground v.1.15,2013-04-07 22:59:00,
2013-04-07 16:05:00,70.6,54.6,29.86,SSW,207,6.0,9.0,57,0.00,,,0.00,534,Wunderground v.1.15,2013-04-07 23:05:00,
2013-04-07 16:10:00,70.8,54.8,29.85,SE,140,6.0,9.0,57,0.00,,,0.00,519,Wunderground v.1.15,2013-04-07 23:10:00,
2013-04-07 16:16:00,70.7,54.7,29.85,NNW,343,4.0,6.0,57,0.00,,,0.00,497,Wunderground v.1.15,2013-04-07 23:16:00,
2013-04-07 16:22:00,70.5,54.5,29.85,West,281,4.0,5.0,57,0.00,,,0.00,478,Wunderground v.1.15,2013-04-07 23:22:00,
2013-04-07 16:28:00,70.3,54.8,29.85,SW,234,5.0,11.0,58,0.00,,,0.00,459,Wunderground v.1.15,2013-04-07 23:28:00,
2013-04-07 16:33:00,70.3,54.8,29.85,SSE,167,6.0,7.0,58,0.00,,,0.00,443,Wunderground v.1.15,2013-04-07 23:33:00,
2013-04-07 16:40:00,70.8,54.8,29.84,SW,227,5.0,7.0,57,0.00,,,0.00,413,Wunderground v.1.15,2013-04-07 23:40:00,
2013-04-07 16:47:00,70.0,55.0,29.85,SW,234,5.0,11.0,59,0.00,,,0.00,394,Wunderground v.1.15,2013-04-07 23:47:00,
2013-04-07 16:52:00,69.8,54.8,29.84,SW,228,5.0,6.0,59,0.00,,,0.00,362,Wunderground v.1.15,2013-04-07 23:52:00,
2013-04-07 16:58:00,69.9,54.9,29.84,SSW,205,5.0,8.0,59,0.00,,,0.00,346,Wunderground v.1.15,2013-04-07 23:58:00,
2013-04-07 17:04:00,69.5,54.5,29.84,SW,221,5.0,5.0,59,0.00,,,0.00,350,Wunderground v.1.15,2013-04-08 00:04:00,
2013-04-07 17:09:00,69.3,54.8,29.84,SW,217,6.0,9.0,60,0.00,,,0.00,311,Wunderground v.1.15,2013-04-08 00:09:00,
2013-04-07 17:15:00,69.3,54.8,29.84,SW,214,6.0,9.0,60,0.00,,,0.00,304,Wunderground v.1.15,2013-04-08 00:15:00,
2013-04-07 17:21:00,69.2,54.3,29.84,South,186,6.0,7.0,59,0.00,,,0.00,283,Wunderground v.1.15,2013-04-08 00:21:00,
2013-04-07 17:27:00,69.3,54.4,29.84,WSW,251,5.0,8.0,59,0.00,,,0.00,262,Wunderground v.1.15,2013-04-08 00:27:00,
2013-04-07 17:33:00,68.7,53.8,29.84,West,271,5.0,6.0,59,0.00,,,0.00,241,Wunderground v.1.15,2013-04-08 00:33:00,
2013-04-07 17:39:00,69.0,53.6,29.84,West,276,5.0,10.0,58,0.00,,,0.00,223,Wunderground v.1.15,2013-04-08 00:39:00,
2013-04-07 17:44:00,68.7,53.3,29.84,West,269,4.0,6.0,58,0.00,,,0.00,209,Wunderground v.1.15,2013-04-08 00:44:00,
2013-04-07 17:50:00,68.8,53.4,29.83,SSW,210,5.0,6.0,58,0.00,,,0.00,186,Wunderground v.1.15,2013-04-08 00:50:00,
2013-04-07 17:55:00,68.6,53.2,29.83,SW,226,4.0,5.0,58,0.00,,,0.00,169,Wunderground v.1.15,2013-04-08 00:55:00,
2013-04-07 18:00:00,68.6,53.2,29.84,WSW,252,4.0,6.0,58,0.00,,,0.00,151,Wunderground v.1.15,2013-04-08 01:00:00,
2013-04-07 18:06:00,68.4,53.0,29.84,SSW,193,4.0,7.0,58,0.00,,,0.00,135,Wunderground v.1.15,2013-04-08 01:06:00,
2013-04-07 18:12:00,68.1,52.8,29.83,SW,215,4.0,4.0,58,0.00,,,0.00,116,Wunderground v.1.15,2013-04-08 01:12:00,
2013-04-07 18:18:00,67.8,52.9,29.83,South,177,4.0,7.0,59,0.00,,,0.00,98,Wunderground v.1.15,2013-04-08 01:18:00,
2013-04-07 18:23:00,67.7,53.8,29.83,WSW,242,3.0,6.0,61,0.00,,,0.00,84,Wunderground v.1.15,2013-04-08 01:23:00,
2013-04-07 18:29:00,67.4,53.9,29.83,SE,140,3.0,6.0,62,0.00,,,0.00,70,Wunderground v.1.15,2013-04-08 01:29:00,
2013-04-07 18:35:00,66.9,53.9,29.83,North,5,2.0,3.0,63,0.00,,,0.00,58,Wunderground v.1.15,2013-04-08 01:35:00,
2013-04-07 18:42:00,66.2,54.1,29.82,North,355,2.0,2.0,65,0.00,,,0.00,44,Wunderground v.1.15,2013-04-08 01:42:00,
2013-04-07 18:47:00,65.9,54.2,29.82,WNW,284,3.0,5.0,66,0.00,,,0.00,35,Wunderground v.1.15,2013-04-08 01:47:00,
2013-04-07 18:53:00,65.5,53.8,29.82,NW,311,2.0,3.0,66,0.00,,,0.00,28,Wunderground v.1.15,2013-04-08 01:53:00,
2013-04-07 18:59:00,65.2,54.0,29.82,West,259,2.0,3.0,67,0.00,,,0.00,21,Wunderground v.1.15,2013-04-08 01:59:00,
2013-04-07 19:04:00,64.7,53.9,29.83,South,186,2.0,4.0,68,0.00,,,0.00,14,Wunderground v.1.15,2013-04-08 02:04:00,
2013-04-07 19:10:00,64.3,53.9,29.83,West,270,3.0,4.0,69,0.00,,,0.00,7,Wunderground v.1.15,2013-04-08 02:10:00,
2013-04-07 19:15:00,64.0,53.6,29.83,WNW,284,4.0,6.0,69,0.00,,,0.00,0,Wunderground v.1.15,2013-04-08 02:15:00,
2013-04-07 19:21:00,63.7,53.7,29.83,West,261,5.0,5.0,70,0.00,,,0.00,0,Wunderground v.1.15,2013-04-08 02:21:00,
2013-04-07 19:27:00,63.3,53.7,29.84,West,281,5.0,5.0,71,0.00,,,0.00,0,Wunderground v.1.15,2013-04-08 02:27:00,
2013-04-07 19:32:00,63.0,53.8,29.83,SW,217,4.0,4.0,72,0.00,,,0.00,0,Wunderground v.1.15,2013-04-08 02:32:00,
2013-04-07 19:38:00,62.7,53.9,29.83,SW,215,3.0,4.0,73,0.00,,,0.00,0,Wunderground v.1.15,2013-04-08 02:38:00,
2013-04-07 19:43:00,62.5,53.7,29.83,WSW,245,2.0,2.0,73,0.00,,,0.00,0,Wunderground v.1.15,2013-04-08 02:43:00,
2013-04-07 19:49:00,62.2,53.8,29.83,SW,214,2.0,4.0,74,0.00,,,0.00,0,Wunderground v.1.15,2013-04-08 02:49:00,
2013-04-07 19:55:00,62.0,53.6,29.83,SW,236,2.0,3.0,74,0.00,,,0.00,0,Wunderground v.1.15,2013-04-08 02:55:00,
2013-04-07 20:00:00,61.8,53.8,29.84,West,267,3.0,6.0,75,0.00,,,0.00,0,Wunderground v.1.15,2013-04-08 03:00:00,
2013-04-07 20:06:00,61.5,53.9,29.84,WSW,254,3.0,6.0,76,0.00,,,0.00,0,Wunderground v.1.15,2013-04-08 03:06:00,
2013-04-07 20:12:00,61.3,53.7,29.84,West,270,3.0,3.0,76,0.00,,,0.00,0,Wunderground v.1.15,2013-04-08 03:12:00,
2013-04-07 20:17:00,61.1,53.8,29.84,SW,228,2.0,5.0,77,0.00,,,0.00,0,Wunderground v.1.15,2013-04-08 03:17:00,
2013-04-07 20:22:00,61.1,53.8,29.84,SSW,198,2.0,3.0,77,0.00,,,0.00,0,Wunderground v.1.15,2013-04-08 03:22:00,
2013-04-07 20:28:00,60.9,53.6,29.83,WNW,284,1.0,3.0,77,0.00,,,0.00,0,Wunderground v.1.15,2013-04-08 03:28:00,
2013-04-07 20:34:00,60.6,53.7,29.83,ESE,123,1.0,3.0,78,0.00,,,0.00,0,Wunderground v.1.15,2013-04-08 03:34:00,
2013-04-07 20:39:00,60.4,53.9,29.83,SSE,165,1.0,3.0,79,0.00,,,0.00,0,Wunderground v.1.15,2013-04-08 03:39:00,
2013-04-07 20:47:00,59.9,53.7,29.82,ESE,103,1.0,5.0,80,0.00,,,0.00,0,Wunderground v.1.15,2013-04-08 03:47:00,
2013-04-07 20:52:00,59.9,53.7,29.83,ESE,103,1.0,1.0,80,0.00,,,0.00,0,Wunderground v.1.15,2013-04-08 03:52:00,
2013-04-07 20:57:00,59.9,53.7,29.83,NW,304,1.0,2.0,80,0.00,,,0.00,0,Wunderground v.1.15,2013-04-08 03:57:00,
2013-04-07 21:00:00,59.8,53.6,29.83,WNW,303,1.0,2.0,80,0.00,,,0.00,0,Wunderground v.1.15,2013-04-08 04:00:00,
2013-04-07 21:01:00,59.8,53.6,29.83,WNW,303,1.0,1.0,80,0.00,,,0.00,0,Wunderground v.1.15,2013-04-08 04:01:00,
2013-04-07 21:04:00,59.8,53.6,29.83,WNW,303,1.0,1.0,80,0.00,,,0.00,0,Wunderground v.1.15,2013-04-08 04:04:00,
2013-04-07 21:09:00,58.9,52.4,29.83,WNW,303,0.0,1.0,79,0.00,,,0.00,0,Wunderground v.1.15,2013-04-08 04:09:00,
2013-04-07 21:15:00,58.3,52.5,29.83,WNW,303,0.0,0.0,81,0.00,,,0.00,0,Wunderground v.1.15,2013-04-08 04:15:00,
2013-04-07 21:19:00,58.0,52.2,29.83,WNW,303,0.0,0.0,81,0.00,,,0.00,0,Wunderground v.1.15,2013-04-08 04:19:00,
2013-04-07 21:25:00,57.3,51.5,29.84,SE,124,0.0,2.0,81,0.00,,,0.00,0,Wunderground v.1.15,2013-04-08 04:25:00,
2013-04-07 21:30:00,56.7,51.3,29.83,SE,124,1.0,2.0,82,0.00,,,0.00,0,Wunderground v.1.15,2013-04-08 04:30:00,
2013-04-07 21:35:00,56.2,51.1,29.83,SE,130,1.0,2.0,83,0.00,,,0.00,0,Wunderground v.1.15,2013-04-08 04:35:00,
2013-04-07 21:41:00,55.9,50.8,29.84,SE,130,0.0,0.0,83,0.00,,,0.00,0,Wunderground v.1.15,2013-04-08 04:41:00,
2013-04-07 21:46:00,55.8,51.0,29.84,SE,130,0.0,0.0,84,0.00,,,0.00,0,Wunderground v.1.15,2013-04-08 04:46:00,
2013-04-07 21:51:00,55.4,50.6,29.84,SE,130,0.0,0.0,84,0.00,,,0.00,0,Wunderground v.1.15,2013-04-08 04:51:00,
2013-04-07 21:57:00,55.2,50.4,29.84,SE,130,0.0,1.0,84,0.00,,,0.00,0,Wunderground v.1.15,2013-04-08 04:57:00,
2013-04-07 22:03:00,55.0,50.6,29.84,SE,130,1.0,1.0,85,0.00,,,0.00,0,Wunderground v.1.15,2013-04-08 05:03:00,
2013-04-07 22:08:00,54.6,50.2,29.84,SE,130,0.0,1.0,85,0.00,,,0.00,0,Wunderground v.1.15,2013-04-08 05:08:00,
2013-04-07 22:14:00,54.3,49.9,29.85,SE,130,0.0,0.0,85,0.00,,,0.00,0,Wunderground v.1.15,2013-04-08 05:14:00,
2013-04-07 22:20:00,53.9,49.5,29.84,SE,130,0.0,1.0,85,0.00,,,0.00,0,Wunderground v.1.15,2013-04-08 05:20:00,
2013-04-07 22:26:00,53.6,49.5,29.84,SE,130,0.0,0.0,86,0.00,,,0.00,0,Wunderground v.1.15,2013-04-08 05:26:00,
2013-04-07 22:32:00,53.3,48.9,29.83,SE,130,0.0,1.0,85,0.00,,,0.00,0,Wunderground v.1.15,2013-04-08 05:32:00,
2013-04-07 22:37:00,52.7,48.9,29.83,SE,125,1.0,3.0,87,0.00,,,0.00,0,Wunderground v.1.15,2013-04-08 05:37:00,
2013-04-07 22:43:00,52.7,49.2,29.83,SE,125,1.0,1.0,88,0.00,,,0.00,0,Wunderground v.1.15,2013-04-08 05:43:00,
2013-04-07 22:48:00,52.9,49.4,29.83,SE,124,0.0,1.0,88,0.00,,,0.00,0,Wunderground v.1.15,2013-04-08 05:48:00,
2013-04-07 22:53:00,53.1,49.9,29.83,SE,124,0.0,0.0,89,0.00,,,0.00,0,Wunderground v.1.15,2013-04-08 05:53:00,
2013-04-07 22:59:00,52.7,48.9,29.83,SE,127,0.0,1.0,87,0.00,,,0.00,0,Wunderground v.1.15,2013-04-08 05:59:00,
2013-04-07 23:05:00,52.4,49.3,29.83,SE,127,0.0,1.0,89,0.00,,,0.00,0,Wunderground v.1.15,2013-04-08 06:05:00,
2013-04-07 23:10:00,52.7,49.5,29.83,SE,126,1.0,2.0,89,0.00,,,0.00,0,Wunderground v.1.15,2013-04-08 06:10:00,
2013-04-07 23:16:00,53.0,49.8,29.82,SE,127,1.0,2.0,89,0.00,,,0.00,0,Wunderground v.1.15,2013-04-08 06:16:00,
2013-04-07 23:22:00,52.8,49.6,29.82,ESE,121,2.0,2.0,89,0.00,,,0.00,0,Wunderground v.1.15,2013-04-08 06:22:00,
2013-04-07 23:28:00,52.6,49.4,29.82,ESE,121,1.0,2.0,89,0.00,,,0.00,0,Wunderground v.1.15,2013-04-08 06:28:00,
2013-04-07 23:33:00,52.5,49.4,29.82,ESE,121,0.0,0.0,89,0.00,,,0.00,0,Wunderground v.1.15,2013-04-08 06:33:00,
2013-04-07 23:39:00,52.7,49.2,29.83,ESE,121,0.0,0.0,88,0.00,,,0.00,0,Wunderground v.1.15,2013-04-08 06:39:00,
2013-04-07 23:45:00,52.5,48.7,29.83,ESE,121,0.0,1.0,87,0.00,,,0.00,0,Wunderground v.1.15,2013-04-08 06:45:00,
2013-04-07 23:51:00,51.9,48.5,29.83,ESE,122,0.0,0.0,88,0.00,,,0.00,0,Wunderground v.1.15,2013-04-08 06:51:00,
2013-04-07 23:57:00,51.7,48.0,29.83,ESE,121,0.0,0.0,87,0.00,,,0.00,0,Wunderground v.1.15,2013-04-08 06:57:00,